createdAt,value
2018-11-25T00:00:51.586Z,64.07
2018-11-25T00:03:19.673Z,62.13
2018-11-25T00:05:47.844Z,68.28
2018-11-25T00:08:15.966Z,60.55
2018-11-25T00:10:44.075Z,66.02
2018-11-25T00:13:12.187Z,60.48
2018-11-25T00:15:40.262Z,70.30
2018-11-25T00:18:08.352Z,55.48
2018-11-25T00:20:36.470Z,67.32
2018-11-25T00:23:04.566Z,65.60
2018-11-25T00:25:32.648Z,73.97
2018-11-25T00:28:00.705Z,68.67
2018-11-25T00:30:28.847Z,70.50
2018-11-25T00:32:56.951Z,79.70
2018-11-25T00:35:25.055Z,71.00
2018-11-25T00:37:53.141Z,71.67
2018-11-25T00:40:21.258Z,78.87
2018-11-25T00:42:49.374Z,77.53
2018-11-25T00:45:19.677Z,76.90
2018-11-25T00:47:48.369Z,70.17
2018-11-25T00:50:16.479Z,75.43
2018-11-25T00:52:44.581Z,79.40
2018-11-25T00:55:16.399Z,68.93
2018-11-25T00:57:44.519Z,77.70
2018-11-25T01:00:16.834Z,71.37
2018-11-25T01:02:44.980Z,77.20
2018-11-25T01:05:13.021Z,76.97
2018-11-25T01:07:41.071Z,71.10
2018-11-25T01:10:10.569Z,71.45
2018-11-25T01:12:38.726Z,77.23
2018-11-25T01:15:08.967Z,79.47
2018-11-25T01:17:37.038Z,73.97
2018-11-25T01:20:06.732Z,76.97
2018-11-25T01:22:34.808Z,79.13
2018-11-25T01:25:02.868Z,73.33
2018-11-25T01:27:30.935Z,79.90
2018-11-25T01:29:58.996Z,81.80
2018-11-25T01:32:27.050Z,89.77
2018-11-25T01:35:00.875Z,84.23
2018-11-25T01:37:23.281Z,78.53
2018-11-25T01:39:51.344Z,85.63
2018-11-25T01:42:19.394Z,78.83
2018-11-25T01:44:47.452Z,74.00
2018-11-25T01:47:15.539Z,88.67
2018-11-25T01:49:43.580Z,78.25
2018-11-25T01:52:11.661Z,84.10
2018-11-25T01:54:39.721Z,84.62
2018-11-25T01:57:07.769Z,89.83
2018-11-25T01:59:35.836Z,97.17
2018-11-25T02:02:03.912Z,87.50
2018-11-25T02:04:31.960Z,93.77
2018-11-25T02:07:00.019Z,93.20
2018-11-25T02:09:28.079Z,81.00
2018-11-25T02:11:56.126Z,84.57
2018-11-25T02:14:24.169Z,90.50
2018-11-25T02:16:52.252Z,96.00
2018-11-25T02:19:20.312Z,99.20
2018-11-25T02:21:48.394Z,95.10
2018-11-25T02:24:16.465Z,103.10
2018-11-25T02:26:44.548Z,97.08
2018-11-25T02:29:12.610Z,83.23
2018-11-25T02:31:40.684Z,91.97
2018-11-25T02:34:08.724Z,85.53
2018-11-25T02:36:36.786Z,92.10
2018-11-25T02:39:07.469Z,101.87
2018-11-25T02:41:35.520Z,87.43
2018-11-25T02:44:03.573Z,99.43
2018-11-25T02:46:31.650Z,99.45
2018-11-25T02:48:59.717Z,104.23
2018-11-25T02:51:27.782Z,96.25
2018-11-25T02:53:55.844Z,107.37
2018-11-25T02:56:23.888Z,101.77
2018-11-25T02:58:51.956Z,88.23
2018-11-25T03:01:20.072Z,97.27
2018-11-25T03:03:48.138Z,99.22
2018-11-25T03:06:16.245Z,79.37
2018-11-25T03:08:44.302Z,80.87
2018-11-25T03:11:12.352Z,106.63
2018-11-25T03:13:40.505Z,108.77
2018-11-25T03:16:08.578Z,102.83
2018-11-25T03:18:36.648Z,113.20
2018-11-25T03:21:04.701Z,114.87
2018-11-25T03:23:32.745Z,118.43
2018-11-25T03:26:00.797Z,109.80
2018-11-25T03:28:28.858Z,104.27
2018-11-25T03:30:56.928Z,99.60
2018-11-25T03:33:24.997Z,104.43
2018-11-25T03:35:53.042Z,110.93
2018-11-25T03:38:21.097Z,109.50
2018-11-25T03:40:49.177Z,104.30
2018-11-25T03:43:17.275Z,116.77
2018-11-25T03:45:45.349Z,116.37
2018-11-25T03:48:13.417Z,104.35
2018-11-25T03:50:41.477Z,115.45
2018-11-25T03:53:09.566Z,104.97
2018-11-25T03:55:37.609Z,125.10
2018-11-25T03:58:05.760Z,119.00
2018-11-25T04:00:33.866Z,108.07
2018-11-25T04:03:01.950Z,115.63
2018-11-25T04:05:30.059Z,114.80
2018-11-25T04:07:58.120Z,116.93
2018-11-25T04:10:26.203Z,118.97
2018-11-25T04:12:54.193Z,106.40
2018-11-25T04:15:22.259Z,108.23
2018-11-25T04:17:50.349Z,128.90
2018-11-25T04:20:19.393Z,116.03
2018-11-25T04:22:47.580Z,100.15
2018-11-25T04:25:15.660Z,121.30
2018-11-25T04:27:43.744Z,121.07
2018-11-25T04:30:12.978Z,125.93
2018-11-25T04:32:41.052Z,110.13
2018-11-25T04:35:10.264Z,133.63
2018-11-25T04:37:38.396Z,115.77
2018-11-25T04:40:14.716Z,117.77
2018-11-25T04:42:42.776Z,119.23
2018-11-25T04:45:13.820Z,106.23
2018-11-25T04:47:41.891Z,114.30
2018-11-25T04:50:12.276Z,108.50
2018-11-25T04:52:41.129Z,134.27
2018-11-25T04:55:08.965Z,115.10
2018-11-25T04:57:37.021Z,128.87
2018-11-25T05:00:08.362Z,115.90
2018-11-25T05:02:36.423Z,113.17
2018-11-25T05:05:04.614Z,117.42
2018-11-25T05:07:32.706Z,108.27
2018-11-25T05:10:00.764Z,120.70
2018-11-25T05:12:28.841Z,125.63
2018-11-25T05:14:56.934Z,112.50
2018-11-25T05:17:25.013Z,124.80
2018-11-25T05:19:53.076Z,119.00
2018-11-25T05:22:21.164Z,121.03
2018-11-25T05:24:49.213Z,105.57
2018-11-25T05:27:17.268Z,120.10
2018-11-25T05:29:45.350Z,125.92
2018-11-25T05:32:13.408Z,124.65
2018-11-25T05:34:41.490Z,117.17
2018-11-25T05:37:09.538Z,119.40
2018-11-25T05:39:37.626Z,102.75
2018-11-25T05:42:05.868Z,109.03
2018-11-25T05:44:33.924Z,111.93
2018-11-25T05:47:01.964Z,121.93
2018-11-25T05:49:36.335Z,115.03
2018-11-25T05:51:58.116Z,111.30
2018-11-25T05:54:26.154Z,112.83
2018-11-25T05:56:54.209Z,104.27
2018-11-25T05:59:22.256Z,115.30
2018-11-25T06:01:50.328Z,113.45
2018-11-25T06:04:18.424Z,112.17
2018-11-25T06:06:46.484Z,117.15
2018-11-25T06:09:14.542Z,119.17
2018-11-25T06:11:42.605Z,119.02
2018-11-25T06:14:10.656Z,128.60
2018-11-25T06:16:38.703Z,124.85
2018-11-25T06:19:06.778Z,128.40
2018-11-25T06:21:34.844Z,116.47
2018-11-25T06:24:02.923Z,124.03
2018-11-25T06:26:31.028Z,128.40
2018-11-25T06:28:59.088Z,125.83
2018-11-25T06:31:28.082Z,128.57
2018-11-25T06:33:55.248Z,116.80
2018-11-25T06:36:23.312Z,131.60
2018-11-25T06:38:51.384Z,113.63
2018-11-25T06:41:19.461Z,118.67
2018-11-25T06:43:47.544Z,122.80
2018-11-25T06:46:15.605Z,109.67
2018-11-25T06:48:43.666Z,115.17
2018-11-25T06:51:11.744Z,127.80
2018-11-25T06:53:40.720Z,124.62
2018-11-25T06:56:08.755Z,115.80
2018-11-25T06:58:36.850Z,123.67
2018-11-25T07:01:04.978Z,125.30
2018-11-25T07:03:33.108Z,103.53
2018-11-25T07:06:01.184Z,128.87
2018-11-25T07:08:29.273Z,120.90
2018-11-25T07:10:57.328Z,120.23
2018-11-25T07:13:25.372Z,121.30
2018-11-25T07:15:53.424Z,126.13
2018-11-25T07:18:21.457Z,120.80
2018-11-25T07:20:49.524Z,125.77
2018-11-25T07:23:17.602Z,135.17
2018-11-25T07:25:45.720Z,118.90
2018-11-25T07:28:18.513Z,121.28
2018-11-25T07:30:41.885Z,110.28
2018-11-25T07:33:09.973Z,132.15
2018-11-25T07:35:38.047Z,117.82
2018-11-25T07:38:06.439Z,115.35
2018-11-25T07:40:35.253Z,114.60
2018-11-25T07:43:02.544Z,129.20
2018-11-25T07:45:30.989Z,124.57
2018-11-25T07:47:58.688Z,125.17
2018-11-25T07:50:26.775Z,113.03
2018-11-25T07:52:54.858Z,118.35
2018-11-25T07:55:24.161Z,126.00
2018-11-25T07:57:53.245Z,122.80
2018-11-25T08:00:22.345Z,137.67
2018-11-25T08:02:50.415Z,127.33
2018-11-25T08:05:20.664Z,122.90
2018-11-25T08:07:48.748Z,110.80
2018-11-25T08:10:16.865Z,122.33
2018-11-25T08:12:45.497Z,127.93
2018-11-25T08:15:14.389Z,128.57
2018-11-25T08:17:42.539Z,136.47
2018-11-25T08:20:25.524Z,129.30
2018-11-25T08:22:53.614Z,136.17
2018-11-25T08:25:22.381Z,126.97
2018-11-25T08:27:50.460Z,132.87
2018-11-25T08:30:20.465Z,135.87
2018-11-25T08:32:48.584Z,138.57
2018-11-25T08:35:17.044Z,137.40
2018-11-25T08:37:45.245Z,123.03
2018-11-25T08:40:15.293Z,130.33
2018-11-25T08:42:43.381Z,135.37
2018-11-25T08:45:13.128Z,143.60
2018-11-25T08:47:41.248Z,138.43
2018-11-25T08:50:16.002Z,132.97
2018-11-25T08:52:45.039Z,133.00
2018-11-25T08:55:15.157Z,140.22
2018-11-25T08:57:43.357Z,124.67
2018-11-25T09:00:12.659Z,130.45
2018-11-25T09:02:40.713Z,135.88
2018-11-25T09:05:10.109Z,131.00
2018-11-25T09:07:38.225Z,120.40
2018-11-25T09:10:09.677Z,138.33
2018-11-25T09:12:37.781Z,137.52
2018-11-25T09:15:10.616Z,136.43
2018-11-25T09:17:38.685Z,136.00
2018-11-25T09:20:09.124Z,142.07
2018-11-25T09:22:37.179Z,144.10
2018-11-25T09:25:06.920Z,123.40
2018-11-25T09:27:35.029Z,118.67
2018-11-25T09:30:03.120Z,131.73
2018-11-25T09:32:31.193Z,127.73
2018-11-25T09:34:59.270Z,117.30
2018-11-25T09:37:27.311Z,114.03
2018-11-25T09:39:55.474Z,112.57
2018-11-25T09:42:24.340Z,113.13
2018-11-25T09:44:52.452Z,116.93
2018-11-25T09:47:20.504Z,96.67
2018-11-25T09:49:48.556Z,114.87
2018-11-25T09:52:16.638Z,92.70
2018-11-25T09:54:44.696Z,107.63
2018-11-25T09:57:12.775Z,96.30
2018-11-25T09:59:40.901Z,91.17
2018-11-25T10:02:09.005Z,85.23
2018-11-25T10:04:37.119Z,102.00
2018-11-25T10:07:05.287Z,90.00
2018-11-25T10:09:33.380Z,96.00
2018-11-25T10:12:01.472Z,76.60
2018-11-25T10:14:29.520Z,88.23
2018-11-25T10:16:57.636Z,83.10
2018-11-25T10:19:25.684Z,72.77
2018-11-25T10:21:53.769Z,79.03
2018-11-25T10:24:21.841Z,69.13
2018-11-25T10:26:49.944Z,67.58
2018-11-25T10:29:18.065Z,75.20
2018-11-25T10:31:46.161Z,75.07
2018-11-25T10:34:14.245Z,60.40
2018-11-25T10:36:42.324Z,67.10
2018-11-25T10:39:10.375Z,58.33
2018-11-25T10:41:38.912Z,63.00
2018-11-25T10:44:06.992Z,60.93
2018-11-25T10:46:35.056Z,63.95
2018-11-25T10:49:03.182Z,55.65
2018-11-25T10:51:31.925Z,55.75
2018-11-25T10:54:00.024Z,59.27
2018-11-25T10:56:28.105Z,60.48
2018-11-25T10:58:56.254Z,58.60
2018-11-25T11:01:29.784Z,61.53
2018-11-25T11:03:58.514Z,60.33
2018-11-25T11:06:32.711Z,68.90
2018-11-25T11:09:00.762Z,67.97
2018-11-25T11:11:28.865Z,82.63
2018-11-25T11:13:56.939Z,65.90
2018-11-25T11:16:25.020Z,67.07
2018-11-25T11:18:53.173Z,69.37
2018-11-25T11:21:21.304Z,80.17
2018-11-25T11:23:49.353Z,77.15
2018-11-25T11:26:25.448Z,73.63
2018-11-25T11:28:53.589Z,75.93
2018-11-25T11:31:21.649Z,76.60
2018-11-25T11:33:49.732Z,82.20
2018-11-25T11:36:17.820Z,77.80
2018-11-25T11:38:45.921Z,93.42
2018-11-25T11:41:14.019Z,76.03
2018-11-25T11:43:42.182Z,80.85
2018-11-25T11:46:10.257Z,82.70
2018-11-25T11:48:38.383Z,81.57
2018-11-25T11:51:06.450Z,86.55
2018-11-25T11:53:34.544Z,85.57
2018-11-25T11:56:02.652Z,80.80
2018-11-25T11:58:30.737Z,90.23
2018-11-25T12:00:58.808Z,90.45
2018-11-25T12:03:26.865Z,83.60
2018-11-25T12:05:54.899Z,84.13
2018-11-25T12:08:22.987Z,92.47
2018-11-25T12:10:51.074Z,102.03
2018-11-25T12:13:19.125Z,98.67
2018-11-25T12:15:47.208Z,88.77
2018-11-25T12:18:15.268Z,96.20
2018-11-25T12:20:43.364Z,81.90
2018-11-25T12:23:11.424Z,85.10
2018-11-25T12:25:39.536Z,100.47
2018-11-25T12:28:07.788Z,88.15
2018-11-25T12:30:35.864Z,91.70
2018-11-25T12:33:03.937Z,98.42
2018-11-25T12:35:32.001Z,91.57
2018-11-25T12:38:00.065Z,95.50
2018-11-25T12:40:28.161Z,90.95
2018-11-25T12:42:57.461Z,88.93
2018-11-25T12:45:25.552Z,94.20
2018-11-25T12:47:53.636Z,82.27
2018-11-25T12:50:23.020Z,105.17
2018-11-25T12:52:51.093Z,85.97
2018-11-25T12:55:20.381Z,93.73
2018-11-25T12:57:48.624Z,88.80
2018-11-25T13:00:25.897Z,82.85
2018-11-25T13:02:53.956Z,79.77
2018-11-25T13:05:22.023Z,82.12
2018-11-25T13:07:50.081Z,93.67
2018-11-25T13:10:18.153Z,79.30
2018-11-25T13:12:46.256Z,96.40
2018-11-25T13:15:14.349Z,86.07
2018-11-25T13:17:42.435Z,88.47
2018-11-25T13:20:12.610Z,84.43
2018-11-25T13:22:40.907Z,79.40
2018-11-25T13:25:10.299Z,78.10
2018-11-25T13:27:38.480Z,77.83
2018-11-25T13:30:11.687Z,72.97
2018-11-25T13:32:39.827Z,73.60
2018-11-25T13:35:08.664Z,79.90
2018-11-25T13:37:36.787Z,72.23
2018-11-25T13:40:06.331Z,78.00
2018-11-25T13:42:34.402Z,72.27
2018-11-25T13:45:01.484Z,74.37
2018-11-25T13:47:29.568Z,74.87
2018-11-25T13:49:57.652Z,69.43
2018-11-25T13:52:25.701Z,63.50
2018-11-25T13:54:53.861Z,65.00
2018-11-25T13:57:21.919Z,69.87
2018-11-25T13:59:49.973Z,67.83
2018-11-25T14:02:18.001Z,62.73
2018-11-25T14:04:46.076Z,65.73
2018-11-25T14:07:14.448Z,61.73
2018-11-25T14:09:42.544Z,61.05
2018-11-25T14:12:10.620Z,56.75
2018-11-25T14:14:38.769Z,60.90
2018-11-25T14:17:06.873Z,64.90
2018-11-25T14:19:34.932Z,62.10
2018-11-25T14:22:03.010Z,59.27
2018-11-25T14:24:31.076Z,58.48
2018-11-25T14:27:01.316Z,61.43
2018-11-25T14:29:29.776Z,57.30
2018-11-25T14:31:57.841Z,62.00
2018-11-25T14:34:25.897Z,61.47
2018-11-25T14:36:53.968Z,57.53
2018-11-25T14:39:22.026Z,54.17
2018-11-25T14:41:50.128Z,58.40
2018-11-25T14:44:18.284Z,53.90
2018-11-25T14:46:46.368Z,57.53
2018-11-25T14:49:14.456Z,55.55
2018-11-25T14:51:42.566Z,53.50
2018-11-25T14:54:10.637Z,56.47
2018-11-25T14:56:38.724Z,53.65
2018-11-25T14:59:06.791Z,56.37
2018-11-25T15:01:34.871Z,55.50
2018-11-25T15:04:02.974Z,58.20
2018-11-25T15:06:31.049Z,55.03
2018-11-25T15:08:59.106Z,53.37
2018-11-25T15:11:27.194Z,57.53
2018-11-25T15:13:55.293Z,57.25
2018-11-25T15:16:23.381Z,53.33
2018-11-25T15:18:51.566Z,57.30
2018-11-25T15:21:19.644Z,59.90
2018-11-25T15:23:47.721Z,67.08
2018-11-25T15:26:17.536Z,64.13
2018-11-25T15:28:45.621Z,57.60
2018-11-25T15:31:13.692Z,61.90
2018-11-25T15:33:42.176Z,59.08
2018-11-25T15:36:10.253Z,62.60
2018-11-25T15:38:38.357Z,62.00
2018-11-25T15:41:06.658Z,64.63
2018-11-25T15:43:34.732Z,64.67
2018-11-25T15:46:02.852Z,67.00
2018-11-25T15:48:31.869Z,65.30
2018-11-25T15:50:59.940Z,63.57
2018-11-25T15:53:28.013Z,61.55
2018-11-25T15:55:58.039Z,65.17
2018-11-25T15:58:26.114Z,66.30
2018-11-25T16:00:54.186Z,63.23
2018-11-25T16:03:22.221Z,66.12
2018-11-25T16:05:53.727Z,58.80
2018-11-25T16:08:21.801Z,68.67
2018-11-25T16:10:49.863Z,61.85
2018-11-25T16:13:17.953Z,59.30
2018-11-25T16:15:46.013Z,70.30
2018-11-25T16:18:14.114Z,59.77
2018-11-25T16:20:42.193Z,58.73
2018-11-25T16:23:10.881Z,63.87
2018-11-25T16:25:43.661Z,59.40
2018-11-25T16:28:16.216Z,62.63
2018-11-25T16:30:44.297Z,57.90
2018-11-25T16:33:12.394Z,53.10
2018-11-25T16:35:40.462Z,53.47
2018-11-25T16:38:08.525Z,62.70
2018-11-25T16:40:36.661Z,59.95
2018-11-25T16:43:05.166Z,55.45
2018-11-25T16:45:33.254Z,55.40
2018-11-25T16:48:01.338Z,60.27
2018-11-25T16:50:29.425Z,58.47
2018-11-25T16:52:57.534Z,60.43
2018-11-25T16:55:25.621Z,54.43
2018-11-25T16:57:53.740Z,56.90
2018-11-25T17:00:21.780Z,53.77
2018-11-25T17:02:49.880Z,61.40
2018-11-25T17:05:20.384Z,51.20
2018-11-25T17:07:51.181Z,49.03
2018-11-25T17:10:19.241Z,58.70
2018-11-25T17:12:47.331Z,49.27
2018-11-25T17:15:21.387Z,55.40
2018-11-25T17:17:49.473Z,55.93
2018-11-25T17:20:17.526Z,52.80
2018-11-25T17:22:45.600Z,48.53
2018-11-25T17:25:14.123Z,52.40
2018-11-25T17:27:42.476Z,50.40
2018-11-25T17:30:12.193Z,46.50
2018-11-25T17:32:40.268Z,58.63
2018-11-25T17:35:10.391Z,52.87
2018-11-25T17:37:38.466Z,58.42
2018-11-25T17:40:08.092Z,54.42
2018-11-25T17:42:36.183Z,59.35
2018-11-25T17:45:04.445Z,55.93
2018-11-25T17:47:32.553Z,50.90
2018-11-25T17:50:00.642Z,48.92
2018-11-25T17:52:28.710Z,52.58
2018-11-25T17:54:56.800Z,47.10
2018-11-25T17:57:24.900Z,45.63
2018-11-25T17:59:53.004Z,51.87
2018-11-25T18:02:21.052Z,49.17
2018-11-25T18:04:49.160Z,49.00
2018-11-25T18:07:17.213Z,49.83
2018-11-25T18:09:45.313Z,55.23
2018-11-25T18:12:13.377Z,48.23
2018-11-25T18:14:41.460Z,60.83
2018-11-25T18:17:09.543Z,49.93
2018-11-25T18:19:37.629Z,50.83
2018-11-25T18:22:10.584Z,45.33
2018-11-25T18:24:38.641Z,44.03
2018-11-25T18:27:06.777Z,44.10
2018-11-25T18:29:34.836Z,44.67
2018-11-25T18:32:02.917Z,45.10
2018-11-25T18:34:30.973Z,46.37
2018-11-25T18:36:59.029Z,47.97
2018-11-25T18:39:27.121Z,48.73
2018-11-25T18:41:55.197Z,42.83
2018-11-25T18:44:23.286Z,45.57
2018-11-25T18:46:51.357Z,48.33
2018-11-25T18:49:19.453Z,49.42
2018-11-25T18:51:47.564Z,45.20
2018-11-25T18:54:15.674Z,53.43
2018-11-25T18:56:43.776Z,49.98
2018-11-25T18:59:11.852Z,41.60
2018-11-25T19:01:49.509Z,45.33
2018-11-25T19:04:17.628Z,46.80
2018-11-25T19:06:45.756Z,47.67
2018-11-25T19:09:13.828Z,47.60
2018-11-25T19:11:41.917Z,46.30
2018-11-25T19:14:09.966Z,40.43
2018-11-25T19:16:38.070Z,48.30
2018-11-25T19:19:06.252Z,42.75
2018-11-25T19:21:34.320Z,54.90
2018-11-25T19:24:02.386Z,49.13
2018-11-25T19:26:30.442Z,53.30
2018-11-25T19:28:58.516Z,46.92
2018-11-25T19:31:26.636Z,46.95
2018-11-25T19:33:54.726Z,46.37
2018-11-25T19:36:22.821Z,46.23
2018-11-25T19:38:50.869Z,42.25
2018-11-25T19:41:18.950Z,51.15
2018-11-25T19:43:47.048Z,53.70
2018-11-25T19:46:15.129Z,45.57
2018-11-25T19:48:43.179Z,46.07
2018-11-25T19:51:17.289Z,47.57
2018-11-25T19:53:39.343Z,48.70
2018-11-25T19:56:07.413Z,50.43
2018-11-25T19:58:35.501Z,46.93
2018-11-25T20:01:03.618Z,44.93
2018-11-25T20:03:31.693Z,46.30
2018-11-25T20:05:59.744Z,41.43
2018-11-25T20:08:27.832Z,48.90
2018-11-25T20:10:55.927Z,42.93
2018-11-25T20:13:23.997Z,43.25
2018-11-25T20:15:52.082Z,43.70
2018-11-25T20:18:20.160Z,41.25
2018-11-25T20:21:54.557Z,47.63
2018-11-25T20:24:22.600Z,44.07
2018-11-25T20:26:56.320Z,38.48
2018-11-25T20:29:24.993Z,40.30
2018-11-25T20:32:57.280Z,43.23
2018-11-25T20:35:25.348Z,44.17
2018-11-25T20:37:58.891Z,39.90
2018-11-25T20:40:27.005Z,39.37
2018-11-25T20:42:55.357Z,37.33
2018-11-25T20:45:29.039Z,44.70
2018-11-25T20:47:59.214Z,42.13
2018-11-25T20:50:26.337Z,42.37
2018-11-25T20:52:59.884Z,40.10
2018-11-25T20:55:28.081Z,46.20
2018-11-25T20:57:56.173Z,41.77
2018-11-25T21:00:25.546Z,46.28
2018-11-25T21:02:53.629Z,38.37
2018-11-25T21:05:21.741Z,37.65
2018-11-25T21:07:49.840Z,47.37
2018-11-25T21:10:19.088Z,44.53
2018-11-25T21:12:49.693Z,47.70
2018-11-25T21:15:17.864Z,40.73
2018-11-25T21:17:45.988Z,48.93
2018-11-25T21:20:18.543Z,51.35
2018-11-25T21:22:46.620Z,43.98
2018-11-25T21:25:18.969Z,46.70
2018-11-25T21:27:47.119Z,53.50
2018-11-25T21:30:18.150Z,46.03
2018-11-25T21:32:47.112Z,52.58
2018-11-25T21:35:15.210Z,50.43
2018-11-25T21:37:43.293Z,47.93
2018-11-25T21:40:14.663Z,50.03
2018-11-25T21:42:42.778Z,44.48
2018-11-25T21:45:12.167Z,48.00
2018-11-25T21:47:40.352Z,39.67
2018-11-25T21:50:13.008Z,41.07
2018-11-25T21:52:41.099Z,34.60
2018-11-25T21:55:10.672Z,38.20
2018-11-25T21:57:38.784Z,33.30
2018-11-25T22:00:24.336Z,32.90
2018-11-25T22:02:52.428Z,33.53
2018-11-25T22:05:24.689Z,35.17
2018-11-25T22:07:48.604Z,36.37
2018-11-25T22:10:18.785Z,36.20
2018-11-25T22:12:47.090Z,37.00
2018-11-25T22:15:22.715Z,41.47
2018-11-25T22:17:50.997Z,38.53
2018-11-25T22:20:19.284Z,42.90
2018-11-25T22:22:47.369Z,39.00
2018-11-25T22:25:16.352Z,31.17
2018-11-25T22:27:44.573Z,41.80
2018-11-25T22:30:23.670Z,43.07
2018-11-25T22:32:51.804Z,40.45
2018-11-25T22:35:21.366Z,39.27
2018-11-25T22:37:49.434Z,33.00
2018-11-25T22:40:18.326Z,40.70
2018-11-25T22:42:48.243Z,37.50
2018-11-25T22:45:18.299Z,35.77
2018-11-25T22:47:46.388Z,42.80
2018-11-25T22:50:16.364Z,33.02
2018-11-25T22:52:44.501Z,31.50
2018-11-25T22:55:14.701Z,32.80
2018-11-25T22:57:42.900Z,29.90
2018-11-25T23:00:28.422Z,31.65
2018-11-25T23:02:56.558Z,30.33
2018-11-25T23:05:36.029Z,34.33
2018-11-25T23:08:04.091Z,30.07
2018-11-25T23:10:32.195Z,30.00
2018-11-25T23:13:00.296Z,30.80
2018-11-25T23:15:28.367Z,30.27
2018-11-25T23:17:56.440Z,33.70
2018-11-25T23:20:24.492Z,29.67
2018-11-25T23:22:52.576Z,25.20
2018-11-25T23:25:20.636Z,29.87
2018-11-25T23:27:48.749Z,31.97
2018-11-25T23:30:16.816Z,26.50
2018-11-25T23:32:44.888Z,34.33
2018-11-25T23:35:16.654Z,27.93
2018-11-25T23:37:44.746Z,29.90
2018-11-25T23:40:12.823Z,33.77
2018-11-25T23:42:40.896Z,25.50
2018-11-25T23:45:11.752Z,27.47
2018-11-25T23:47:39.819Z,29.05
2018-11-25T23:50:09.517Z,26.45
2018-11-25T23:52:37.748Z,24.37
2018-11-25T23:55:13.770Z,29.18
2018-11-25T23:57:41.915Z,30.08
